LiveATC.Net - Listen to live air traffic control over the Internet!


ICAO: KMRN  IATA: MRN   Airport: Foothills Regional Airport
City: Morganton   State/Province: North Carolina
Country: United States   Continent: North America
KMRN METAR Weather: KMRN 241515Z AUTO 36005KT 5SM DZ BKN002 OVC005 04/03 A3013 RMK AO2 P0001 T00360029
KMRN Flight Activity (FlightAware)
KMRN Airport Info   (iFlightPlanner)
KMRN VFR Sectional Chart   (iFlightPlanner) 
KMRN IFR Low Chart   (iFlightPlanner) 

KMRN CTAF
Feed Status: UP   Listeners: 0
Listen in your browser - HTML5 player (in browser, HTML5)
Click here to listen with your own player (launches your MP3 player)
Archive Access: KMRN CTAF
FacilityFrequency
Foothills CTAF122.700

NOTICE

Unauthorized use prohibited. See LiveATC.net Terms of Service


Airport/ARTCC Code
Frequency Search
(e.g., 124.400, 128.75)
Site-wide search
 


Browse Feeds
Top 50 Feeds
Coverage Map
Bad Weather Areas

LiveATC FAQ
Offer LiveATC feed
Contact LiveATC.net
Press Inquiries

LiveATC on iPhone
LiveATC on Android

Windows Phone
Windows 8/10

LiveATC Mobile
(Mobile browser)

ATC Audio Archives
Interesting Recordings

LiveATC Forums


Home Page
About LiveATC.net
Make a Donation
Terms of Use
Privacy Policy

Canadian Air Freqs

AIRMETs/SIGMETs

FAA Airport Status
Nat'l Airspace Status
Arrival Demand Charts


Server Software By:
Icecast.org
Liquidsoap